createdAt,value
2022-08-03T00:02:24.606Z,100263.19
2022-08-03T00:05:26.037Z,100263.09
2022-08-03T00:08:27.488Z,100262.41
2022-08-03T00:11:28.914Z,100273.41
2022-08-03T00:14:30.457Z,100259.72
2022-08-03T00:17:52.295Z,100265.94
2022-08-03T00:20:53.376Z,100263.06
2022-08-03T00:23:55.943Z,100259.69
2022-08-03T00:26:57.388Z,100260.09
2022-08-03T00:29:59.770Z,100262.50
2022-08-03T00:33:02.049Z,100263.56
2022-08-03T00:36:04.422Z,100262.16
2022-08-03T00:39:05.877Z,100259.50
2022-08-03T00:42:07.437Z,100265.94
2022-08-03T00:45:09.201Z,100263.97
2022-08-03T00:48:19.454Z,100259.94
2022-08-03T00:51:33.941Z,100269.06
2022-08-03T00:54:37.868Z,100267.41
2022-08-03T00:57:39.609Z,100265.22
2022-08-03T01:00:41.231Z,100262.22
2022-08-03T01:03:42.820Z,100262.94
2022-08-03T01:06:55.676Z,100256.88
2022-08-03T01:10:10.151Z,100257.44
2022-08-03T01:14:01.715Z,100249.06
2022-08-03T01:17:24.229Z,100249.94
2022-08-03T01:20:31.910Z,100244.69
2022-08-03T01:24:10.799Z,100244.69
2022-08-03T01:27:18.862Z,100237.31
2022-08-03T01:30:20.943Z,100239.34
2022-08-03T01:33:26.137Z,100241.84
2022-08-03T01:36:35.449Z,100241.91
2022-08-03T01:39:39.837Z,100251.22
2022-08-03T01:42:43.294Z,100248.47
2022-08-03T01:45:45.310Z,100244.03
2022-08-03T01:48:49.118Z,100243.59
2022-08-03T01:52:03.702Z,100242.66
2022-08-03T01:55:08.888Z,100244.31
2022-08-03T01:58:13.553Z,100240.31
2022-08-03T02:01:17.073Z,100236.03
2022-08-03T02:04:19.483Z,100236.72
2022-08-03T02:07:21.293Z,100235.03
2022-08-03T02:10:35.501Z,100228.31
2022-08-03T02:13:38.424Z,100231.28
2022-08-03T02:16:39.985Z,100225.91
2022-08-03T02:19:43.154Z,100235.56
2022-08-03T02:22:46.524Z,100234.03
2022-08-03T02:25:59.897Z,100229.66
2022-08-03T02:29:08.820Z,100240.00
2022-08-03T02:32:20.132Z,100234.84
2022-08-03T02:35:23.404Z,100231.91
2022-08-03T02:38:31.083Z,100236.84
2022-08-03T02:41:41.762Z,100236.53
2022-08-03T02:44:48.448Z,100230.19
2022-08-03T02:47:55.234Z,100223.63
2022-08-03T02:50:59.796Z,100227.41
2022-08-03T02:54:04.147Z,100220.34
2022-08-03T02:57:07.622Z,100225.53
2022-08-03T03:00:10.062Z,100223.25
2022-08-03T03:03:12.934Z,100215.63
2022-08-03T03:06:17.475Z,100220.81
2022-08-03T03:09:21.512Z,100216.03
2022-08-03T03:12:24.582Z,100218.97
2022-08-03T03:15:27.836Z,100219.03
2022-08-03T03:18:30.959Z,100220.34
2022-08-03T03:21:33.835Z,100221.59
2022-08-03T03:24:36.317Z,100214.94
2022-08-03T03:27:37.904Z,100218.03
2022-08-03T03:30:40.085Z,100222.47
2022-08-03T03:33:41.876Z,100216.72
2022-08-03T03:36:43.333Z,100223.78
2022-08-03T03:39:44.911Z,100218.16
2022-08-03T03:42:46.637Z,100229.38
2022-08-03T03:45:49.122Z,100227.72
2022-08-03T03:48:50.802Z,100233.66
2022-08-03T03:51:54.185Z,100221.19
2022-08-03T03:55:00.666Z,100230.75
2022-08-03T03:58:04.059Z,100231.28
2022-08-03T04:01:05.666Z,100232.44
2022-08-03T04:04:25.592Z,100232.56
2022-08-03T04:07:46.763Z,100230.41
2022-08-03T04:11:06.107Z,100233.41
2022-08-03T04:14:15.151Z,100232.00
2022-08-03T04:17:18.328Z,100236.59
2022-08-03T04:20:21.406Z,100236.91
2022-08-03T04:23:27.679Z,100233.00
2022-08-03T04:26:33.806Z,100236.34
2022-08-03T04:29:38.519Z,100239.19
2022-08-03T04:32:51.704Z,100237.78
2022-08-03T04:36:02.695Z,100243.13
2022-08-03T04:39:16.874Z,100241.66
2022-08-03T04:42:21.670Z,100236.84
2022-08-03T04:45:25.158Z,100244.41
2022-08-03T04:48:27.183Z,100242.91
2022-08-03T04:51:29.929Z,100244.53
2022-08-03T04:54:39.452Z,100248.09
2022-08-03T04:57:40.893Z,100247.66
2022-08-03T05:00:42.968Z,100250.03
2022-08-03T05:03:44.396Z,100250.38
2022-08-03T05:06:48.032Z,100242.38
2022-08-03T05:09:52.820Z,100249.34
2022-08-03T05:12:59.205Z,100250.84
2022-08-03T05:16:00.642Z,100251.94
2022-08-03T05:19:02.200Z,100246.41
2022-08-03T05:22:03.633Z,100249.88
2022-08-03T05:25:05.480Z,100251.00
2022-08-03T05:28:06.970Z,100249.59
2022-08-03T05:31:08.479Z,100251.44
2022-08-03T05:34:10.074Z,100254.69
2022-08-03T05:37:11.707Z,100253.03
2022-08-03T05:40:13.355Z,100256.75
2022-08-03T05:43:14.846Z,100256.53
2022-08-03T05:46:16.368Z,100257.50
2022-08-03T05:49:18.430Z,100252.94
2022-08-03T05:52:19.914Z,100254.50
2022-08-03T05:55:21.622Z,100249.25
2022-08-03T05:58:23.056Z,100258.25
2022-08-03T06:01:33.081Z,100265.69
2022-08-03T06:04:34.693Z,100268.38
2022-08-03T06:07:36.643Z,100271.59
2022-08-03T06:10:38.560Z,100276.06
2022-08-03T06:13:41.082Z,100268.22
2022-08-03T06:16:42.571Z,100269.72
2022-08-03T06:19:44.021Z,100263.28
2022-08-03T06:22:51.317Z,100260.69
2022-08-03T06:26:02.453Z,100269.63
2022-08-03T06:29:04.084Z,100266.88
2022-08-03T06:32:05.990Z,100270.28
2022-08-03T06:35:08.960Z,100267.41
2022-08-03T06:38:10.515Z,100271.72
2022-08-03T06:41:12.058Z,100281.44
2022-08-03T06:44:13.838Z,100280.91
2022-08-03T06:47:15.409Z,100277.06
2022-08-03T06:50:21.743Z,100281.06
2022-08-03T06:53:25.833Z,100280.41
2022-08-03T06:56:27.282Z,100275.72
2022-08-03T07:00:06.469Z,100274.84
2022-08-03T07:02:53.663Z,100279.59
2022-08-03T07:05:59.512Z,100279.38
2022-08-03T07:09:01.139Z,100278.13
2022-08-03T07:12:04.329Z,100282.03
2022-08-03T07:15:06.427Z,100283.72
2022-08-03T07:18:07.931Z,100290.78
2022-08-03T07:21:10.934Z,100295.06
2022-08-03T07:24:12.482Z,100291.06
2022-08-03T07:27:16.265Z,100288.78
2022-08-03T07:30:18.478Z,100289.31
2022-08-03T07:33:20.018Z,100285.00
2022-08-03T07:36:21.615Z,100278.84
2022-08-03T07:39:23.387Z,100281.81
2022-08-03T07:42:25.063Z,100286.41
2022-08-03T07:45:26.762Z,100282.91
2022-08-03T07:48:28.555Z,100290.19
2022-08-03T07:51:30.103Z,100285.97
2022-08-03T07:54:32.044Z,100287.22
2022-08-03T07:57:34.378Z,100293.81
2022-08-03T08:00:36.888Z,100288.94
2022-08-03T08:03:49.827Z,100293.16
2022-08-03T08:06:54.557Z,100291.00
2022-08-03T08:09:56.015Z,100284.53
2022-08-03T08:12:57.433Z,100279.63
2022-08-03T08:15:58.924Z,100270.91
2022-08-03T08:19:02.001Z,100277.28
2022-08-03T08:22:03.465Z,100280.50
2022-08-03T08:25:07.225Z,100278.84
2022-08-03T08:28:30.485Z,100276.63
2022-08-03T08:31:30.197Z,100279.50
2022-08-03T08:34:31.670Z,100276.06
2022-08-03T08:37:34.253Z,100275.56
2022-08-03T08:40:35.740Z,100272.63
2022-08-03T08:43:37.394Z,100274.09
2022-08-03T08:46:39.679Z,100278.19
2022-08-03T08:49:53.404Z,100276.06
2022-08-03T08:53:03.701Z,100268.44
2022-08-03T08:56:06.750Z,100272.72
2022-08-03T08:59:08.634Z,100273.56
2022-08-03T09:02:10.845Z,100268.06
2022-08-03T09:05:13.679Z,100262.84
2022-08-03T09:08:15.369Z,100267.22
2022-08-03T09:11:21.179Z,100262.66
2022-08-03T09:15:00.773Z,100269.72
2022-08-03T09:18:05.214Z,100261.72
2022-08-03T09:21:34.283Z,100260.25
2022-08-03T09:24:41.455Z,100267.19
2022-08-03T09:27:46.867Z,100267.66
2022-08-03T09:31:00.747Z,100266.59
2022-08-03T09:34:06.920Z,100266.25
2022-08-03T09:37:16.621Z,100258.06
2022-08-03T09:40:35.225Z,100264.34
2022-08-03T09:43:46.741Z,100252.81
2022-08-03T09:46:58.754Z,100246.25
2022-08-03T09:50:02.782Z,100254.75
2022-08-03T09:53:04.706Z,100257.66
2022-08-03T09:56:33.542Z,100248.78
2022-08-03T09:59:29.759Z,100245.34
2022-08-03T10:02:31.316Z,100250.13
2022-08-03T10:05:33.167Z,100247.44
2022-08-03T10:08:34.938Z,100250.16
2022-08-03T10:11:41.714Z,100244.63
2022-08-03T10:14:45.616Z,100249.44
2022-08-03T10:17:47.283Z,100246.88
2022-08-03T10:21:04.547Z,100243.97
2022-08-03T10:24:08.453Z,100244.22
2022-08-03T10:27:11.437Z,100245.25
2022-08-03T10:30:13.828Z,100239.94
2022-08-03T10:33:51.643Z,100234.38
2022-08-03T10:36:41.051Z,100231.78
2022-08-03T10:39:53.471Z,100225.53
2022-08-03T10:42:59.434Z,100211.00
2022-08-03T10:46:03.289Z,100213.72
2022-08-03T10:49:06.385Z,100214.75
2022-08-03T10:52:13.676Z,100218.28
2022-08-03T10:55:56.170Z,100213.88
2022-08-03T10:59:00.130Z,100201.16
2022-08-03T11:02:08.270Z,100200.25
2022-08-03T11:05:28.280Z,100204.81
2022-08-03T11:08:32.080Z,100200.31
2022-08-03T11:11:33.487Z,100208.53
2022-08-03T11:14:47.704Z,100197.63
2022-08-03T11:18:11.194Z,100189.47
2022-08-03T11:21:13.057Z,100181.31
2022-08-03T11:24:36.423Z,100184.00
2022-08-03T11:27:38.786Z,100188.56
2022-08-03T11:30:41.012Z,100175.78
2022-08-03T11:33:42.503Z,100187.50
2022-08-03T11:37:23.977Z,100185.81
2022-08-03T11:40:33.722Z,100184.91
2022-08-03T11:43:36.732Z,100177.56
2022-08-03T11:46:38.661Z,100173.06
2022-08-03T11:49:40.733Z,100174.75
2022-08-03T11:52:42.257Z,100179.06
2022-08-03T11:55:48.799Z,100174.50
2022-08-03T11:59:17.366Z,100169.19
2022-08-03T12:02:16.865Z,100158.91
2022-08-03T12:05:18.985Z,100165.28
2022-08-03T12:08:26.695Z,100162.31
2022-08-03T12:11:30.564Z,100159.72
2022-08-03T12:14:49.816Z,100164.38
2022-08-03T12:17:57.695Z,100158.81
2022-08-03T12:21:08.803Z,100156.88
2022-08-03T12:24:10.290Z,100154.94
2022-08-03T12:27:12.519Z,100157.25
2022-08-03T12:30:14.163Z,100151.81
2022-08-03T12:33:16.640Z,100142.31
2022-08-03T12:36:19.366Z,100151.72
2022-08-03T12:39:26.331Z,100145.03
2022-08-03T12:42:35.472Z,100141.25
2022-08-03T12:45:37.199Z,100143.97
2022-08-03T12:49:07.310Z,100142.38
2022-08-03T12:52:08.801Z,100146.44
2022-08-03T12:55:19.884Z,100143.81
2022-08-03T12:58:36.159Z,100133.50
2022-08-03T13:01:54.818Z,100130.22
2022-08-03T13:04:57.417Z,100134.88
2022-08-03T13:07:58.993Z,100133.91
2022-08-03T13:11:19.129Z,100133.81
2022-08-03T13:14:20.810Z,100129.72
2022-08-03T13:17:22.818Z,100122.28
2022-08-03T13:20:26.976Z,100115.69
2022-08-03T13:23:29.920Z,100121.31
2022-08-03T13:26:31.524Z,100122.47
2022-08-03T13:29:34.462Z,100122.84
2022-08-03T13:32:36.414Z,100114.81
2022-08-03T13:35:38.097Z,100117.44
2022-08-03T13:38:39.795Z,100117.16
2022-08-03T13:41:41.459Z,100116.44
2022-08-03T13:44:43.068Z,100101.06
2022-08-03T13:47:44.680Z,100102.91
2022-08-03T13:50:46.544Z,100113.09
2022-08-03T13:53:48.250Z,100098.50
2022-08-03T13:56:52.894Z,100084.66
2022-08-03T13:59:54.824Z,100090.44
2022-08-03T14:03:13.657Z,100078.75
2022-08-03T14:06:15.571Z,100078.59
2022-08-03T14:09:17.597Z,100077.84
2022-08-03T14:12:19.061Z,100075.22
2022-08-03T14:15:20.647Z,100072.75
2022-08-03T14:18:28.365Z,100071.66
2022-08-03T14:21:31.355Z,100070.09
2022-08-03T14:24:32.829Z,100067.13
2022-08-03T14:27:34.298Z,100060.66
2022-08-03T14:30:35.995Z,100066.69
2022-08-03T14:33:37.629Z,100062.69
2022-08-03T14:36:39.278Z,100051.94
2022-08-03T14:43:02.554Z,100057.38
2022-08-03T14:46:04.084Z,100056.06
2022-08-03T14:50:39.031Z,100052.94
2022-08-03T14:52:27.064Z,100055.41
2022-08-03T14:55:28.810Z,100049.84
2022-08-03T14:58:40.620Z,100057.81
2022-08-03T15:02:03.220Z,100052.50
2022-08-03T15:05:03.930Z,100040.00
2022-08-03T15:08:09.330Z,100039.34
2022-08-03T15:11:10.992Z,100034.16
2022-08-03T15:14:13.510Z,100034.34
2022-08-03T15:17:16.379Z,100021.63
2022-08-03T15:20:28.942Z,100027.28
2022-08-03T15:23:38.030Z,100023.34
2022-08-03T15:26:41.797Z,100017.50
2022-08-03T15:30:07.087Z,100011.22
2022-08-03T15:33:05.741Z,100000.19
2022-08-03T15:36:07.420Z,100007.34
2022-08-03T15:39:08.957Z,100000.84
2022-08-03T15:42:10.487Z,100002.03
2022-08-03T15:45:11.969Z,99991.97
2022-08-03T15:48:14.350Z,99998.22
2022-08-03T15:51:17.314Z,99993.78
2022-08-03T15:54:18.844Z,99996.59
2022-08-03T15:57:20.846Z,99995.75
2022-08-03T16:00:33.341Z,99992.81
2022-08-03T16:03:35.475Z,99983.22
2022-08-03T16:06:37.006Z,99982.50
2022-08-03T16:09:42.464Z,99979.47
2022-08-03T16:12:45.950Z,99976.72
2022-08-03T16:15:47.810Z,99977.16
2022-08-03T16:18:49.232Z,99971.22
2022-08-03T16:21:50.804Z,99972.22
2022-08-03T16:24:53.818Z,99968.72
2022-08-03T16:27:58.397Z,99976.84
2022-08-03T16:31:09.156Z,99971.38
2022-08-03T16:34:10.644Z,99973.94
2022-08-03T16:37:37.055Z,99973.75
2022-08-03T16:40:35.015Z,99966.47
2022-08-03T16:43:36.542Z,99975.09
2022-08-03T16:46:38.058Z,99966.41
2022-08-03T16:49:54.686Z,99968.97
2022-08-03T16:52:57.982Z,99964.13
2022-08-03T16:56:00.033Z,99980.66
2022-08-03T16:59:02.761Z,99977.66
2022-08-03T17:02:09.918Z,99977.31
2022-08-03T17:05:12.309Z,99975.38
2022-08-03T17:08:14.147Z,99978.31
2022-08-03T17:11:15.595Z,99974.66
2022-08-03T17:14:21.618Z,99971.16
2022-08-03T17:17:29.870Z,99959.78
2022-08-03T17:20:40.382Z,99957.41
2022-08-03T17:24:19.851Z,99958.16
2022-08-03T17:28:50.362Z,99956.38
2022-08-03T17:31:23.209Z,99952.00
2022-08-03T17:34:29.148Z,99957.34
2022-08-03T17:37:58.241Z,99950.09
2022-08-03T17:40:53.761Z,99953.78
2022-08-03T17:44:15.199Z,99960.13
2022-08-03T17:47:19.412Z,99955.88
2022-08-03T17:50:23.994Z,99958.03
2022-08-03T17:54:05.649Z,99955.50
2022-08-03T17:58:02.154Z,99947.78
2022-08-03T18:02:03.251Z,99951.78
2022-08-03T18:04:55.282Z,99951.84
2022-08-03T18:08:01.756Z,99950.13
2022-08-03T18:11:09.685Z,99951.91
2022-08-03T18:14:26.035Z,99954.63
2022-08-03T18:17:55.496Z,99949.22
2022-08-03T18:20:54.708Z,99951.16
2022-08-03T18:23:57.031Z,99950.31
2022-08-03T18:27:03.167Z,99951.44
2022-08-03T18:30:05.297Z,99956.91
2022-08-03T18:34:17.628Z,99947.13
2022-08-03T18:36:33.340Z,99952.66
2022-08-03T18:39:49.613Z,99953.56
2022-08-03T18:42:54.782Z,99959.06
2022-08-03T18:46:01.283Z,99958.19
2022-08-03T18:49:18.694Z,99957.31
2022-08-03T18:52:35.595Z,99953.69
2022-08-03T18:55:52.225Z,99959.06
2022-08-03T18:59:18.078Z,99951.78
2022-08-03T19:02:39.202Z,99959.88
2022-08-03T19:06:09.461Z,99959.56
2022-08-03T19:09:30.062Z,99958.81
2022-08-03T19:12:39.893Z,99957.66
2022-08-03T19:15:51.330Z,99957.66
2022-08-03T19:18:54.630Z,99963.69
2022-08-03T19:21:56.688Z,99969.16
2022-08-03T19:25:00.809Z,99965.31
2022-08-03T19:28:06.086Z,99968.94
2022-08-03T19:31:10.925Z,99971.13
2022-08-03T19:34:14.359Z,99968.28
2022-08-03T19:37:18.102Z,99977.19
2022-08-03T19:40:24.322Z,99973.50
2022-08-03T19:43:53.857Z,99967.22
2022-08-03T19:47:11.497Z,99977.06
2022-08-03T19:50:20.512Z,99973.59
2022-08-03T19:53:23.837Z,99973.44
2022-08-03T19:56:44.903Z,99967.16
2022-08-03T19:59:50.744Z,99965.50
2022-08-03T20:02:52.726Z,99975.59
2022-08-03T20:05:54.297Z,99964.84
2022-08-03T20:08:57.696Z,99971.97
2022-08-03T20:12:00.421Z,99964.59
2022-08-03T20:15:03.128Z,99968.41
2022-08-03T20:18:04.639Z,99962.72
2022-08-03T20:21:15.289Z,99964.50
2022-08-03T20:24:24.645Z,99959.16
2022-08-03T20:27:30.174Z,99967.44
2022-08-03T20:30:32.068Z,99961.38
2022-08-03T20:33:37.758Z,99968.59
2022-08-03T20:36:47.948Z,99966.72
2022-08-03T20:39:49.662Z,99963.00
2022-08-03T20:42:52.052Z,99967.59
2022-08-03T20:46:01.206Z,99968.72
2022-08-03T20:49:20.390Z,99967.19
2022-08-03T20:52:26.187Z,99965.66
2022-08-03T20:55:47.811Z,99967.56
2022-08-03T20:58:51.018Z,99968.56
2022-08-03T21:01:52.639Z,99963.13
2022-08-03T21:04:56.377Z,99954.28
2022-08-03T21:08:06.915Z,99961.47
2022-08-03T21:11:15.637Z,99957.84
2022-08-03T21:14:27.811Z,99952.25
2022-08-03T21:17:40.383Z,99951.34
2022-08-03T21:20:44.809Z,99957.97
2022-08-03T21:23:50.205Z,99948.81
2022-08-03T21:26:54.637Z,99945.25
2022-08-03T21:29:58.334Z,99947.97
2022-08-03T21:32:59.777Z,99947.16
2022-08-03T21:36:01.924Z,99949.91
2022-08-03T21:39:08.213Z,99943.59
2022-08-03T21:42:10.202Z,99942.72
2022-08-03T21:45:17.056Z,99946.38
2022-08-03T21:48:19.538Z,99946.41
2022-08-03T21:51:24.686Z,99942.66
2022-08-03T21:54:35.376Z,99949.97
2022-08-03T21:57:39.222Z,99940.84
2022-08-03T22:00:42.572Z,99947.19
2022-08-03T22:03:53.096Z,99941.84
2022-08-03T22:06:55.676Z,99947.28
2022-08-03T22:09:59.355Z,99943.66
2022-08-03T22:13:00.840Z,99946.34
2022-08-03T22:16:04.475Z,99944.53
2022-08-03T22:19:05.957Z,99944.44
2022-08-03T22:22:13.662Z,99943.56
2022-08-03T22:25:16.055Z,99939.06
2022-08-03T22:28:18.614Z,99950.91
2022-08-03T22:31:57.658Z,99948.19
2022-08-03T22:34:42.970Z,99954.50
2022-08-03T22:37:45.509Z,99944.53
2022-08-03T22:40:50.728Z,99942.72
2022-08-03T22:43:52.739Z,99945.38
2022-08-03T22:46:55.454Z,99946.34
2022-08-03T22:50:31.772Z,99948.16
2022-08-03T22:53:22.277Z,99942.66
2022-08-03T22:56:23.939Z,99946.25
2022-08-03T22:59:41.329Z,99941.75
2022-08-03T23:02:46.784Z,99938.22
2022-08-03T23:06:00.348Z,99949.91
2022-08-03T23:09:10.120Z,99949.88
2022-08-03T23:12:17.052Z,99947.19
2022-08-03T23:15:18.680Z,99946.25
2022-08-03T23:18:23.335Z,99953.59
2022-08-03T23:21:53.344Z,99950.91
2022-08-03T23:24:51.027Z,99948.19
2022-08-03T23:28:05.095Z,99950.91
2022-08-03T23:31:08.345Z,99955.44
2022-08-03T23:34:32.210Z,99940.63
2022-08-03T23:38:04.424Z,99953.16
2022-08-03T23:40:59.233Z,99940.63
2022-08-03T23:44:03.830Z,99943.28
2022-08-03T23:47:05.333Z,99942.97
2022-08-03T23:50:07.214Z,99933.56
2022-08-03T23:53:19.527Z,99932.75
2022-08-03T23:56:27.955Z,99927.78
2022-08-03T23:59:40.306Z,99930.72
